Time;durP1;ratioP1;P1;durP2;ratioP2;P2;SDS_P1;SDS_P2;PMS_P1;PMS_P2;Temp;Humidity;BMP_temperature;BMP_pressure;BME280_temperature;BME280_humidity;BME280_pressure;Samples;Min_cycle;Max_cycle;Signal;HPM_P1;HPM_P2
2023/04/08 00:01:00;;;;;;;17.10;9.17;;;;;;;;;;4970723;28;20046;-68
2023/04/08 00:03:25;;;;;;;15.83;8.33;;;;;;;;;;4972403;28;20027;-66
2023/04/08 00:05:50;;;;;;;16.90;8.63;;;;;;;;;;4976414;28;20015;-66
2023/04/08 00:08:15;;;;;;;17.10;8.90;;;;;;;;;;4977363;28;20035;-66
2023/04/08 00:10:41;;;;;;;16.67;8.37;;;;;;;;;;4975308;28;20058;-68
2023/04/08 00:13:06;;;;;;;16.13;9.00;;;;;;;;;;4971387;28;20054;-67
2023/04/08 00:15:31;;;;;;;17.80;8.87;;;;;;;;;;4964643;28;20026;-68
2023/04/08 00:17:56;;;;;;;17.33;8.55;;;;;;;;;;4969030;28;20102;-67
2023/04/08 00:20:22;;;;;;;15.73;8.57;;;;;;;;;;4964922;28;20069;-67
2023/04/08 00:22:47;;;;;;;17.58;9.07;;;;;;;;;;4973791;28;20029;-67
2023/04/08 00:25:13;;;;;;;15.73;8.20;;;;;;;;;;4971034;28;20023;-66
2023/04/08 00:27:38;;;;;;;16.10;8.83;;;;;;;;;;4970995;28;20081;-66
2023/04/08 00:30:03;;;;;;;16.88;8.60;;;;;;;;;;4972840;28;20113;-66
2023/04/08 00:32:28;;;;;;;17.35;8.85;;;;;;;;;;4967595;28;20402;-67
2023/04/08 00:34:54;;;;;;;17.30;9.27;;;;;;;;;;4971092;28;20026;-67
2023/04/08 00:37:20;;;;;;;17.60;8.85;;;;;;;;;;4972105;28;20092;-66
2023/04/08 00:39:45;;;;;;;19.73;9.52;;;;;;;;;;4962230;28;20027;-65
2023/04/08 00:42:10;;;;;;;23.13;10.40;;;;;;;;;;4982876;28;20022;-66
2023/04/08 00:44:35;;;;;;;22.48;10.23;;;;;;;;;;4977307;28;20081;-66
2023/04/08 00:47:01;;;;;;;22.40;9.97;;;;;;;;;;4975018;28;20089;-66
2023/04/08 00:49:26;;;;;;;19.07;8.97;;;;;;;;;;4980157;28;20081;-67
2023/04/08 00:51:52;;;;;;;22.58;10.00;;;;;;;;;;4986729;28;20150;-67
2023/04/08 00:54:17;;;;;;;21.30;9.32;;;;;;;;;;4984444;28;20022;-67
2023/04/08 00:56:43;;;;;;;25.83;10.50;;;;;;;;;;4971566;28;20037;-67
2023/04/08 00:59:08;;;;;;;24.15;10.25;;;;;;;;;;4981349;28;20057;-67
2023/04/08 01:01:45;;;;;;;21.83;9.53;;;;;;;;;;4977660;28;20019;-66
2023/04/08 01:04:24;;;;;;;22.67;9.65;;;;;;;;;;4980759;28;20022;-67
2023/04/08 01:06:53;;;;;;;20.83;9.43;;;;;;;;;;4976318;28;20053;-67
2023/04/08 01:09:20;;;;;;;23.33;9.13;;;;;;;;;;4979967;28;20508;-67
2023/04/08 01:11:48;;;;;;;24.02;10.07;;;;;;;;;;4975988;28;20091;-66
2023/04/08 01:14:15;;;;;;;20.73;9.52;;;;;;;;;;4980938;28;20034;-67
2023/04/08 01:16:41;;;;;;;23.25;10.02;;;;;;;;;;4973376;28;20031;-66
2023/04/08 01:19:07;;;;;;;27.65;10.98;;;;;;;;;;4971252;28;20533;-67
2023/04/08 01:21:34;;;;;;;23.92;10.77;;;;;;;;;;4964501;28;20063;-67
2023/04/08 01:24:19;;;;;;;24.77;9.98;;;;;;;;;;4974575;28;20023;-67
2023/04/08 01:26:44;;;;;;;21.98;9.00;;;;;;;;;;4967304;28;21873;-67
2023/04/08 01:29:10;;;;;;;23.63;9.55;;;;;;;;;;4965690;28;20029;-66
2023/04/08 01:31:35;;;;;;;25.48;10.55;;;;;;;;;;4984944;28;20489;-66
2023/04/08 01:34:01;;;;;;;27.38;10.48;;;;;;;;;;4974048;28;20474;-66
2023/04/08 01:36:27;;;;;;;25.50;10.60;;;;;;;;;;4977990;28;20185;-65
2023/04/08 01:38:52;;;;;;;22.42;9.52;;;;;;;;;;4976628;28;20022;-66
2023/04/08 01:41:18;;;;;;;22.58;9.23;;;;;;;;;;4969470;28;20459;-66
2023/04/08 01:43:44;;;;;;;21.27;9.30;;;;;;;;;;4970459;28;20514;-66
2023/04/08 01:46:10;;;;;;;20.80;9.15;;;;;;;;;;4971914;28;20051;-66
2023/04/08 01:48:36;;;;;;;23.00;10.38;;;;;;;;;;4970239;28;20442;-66
2023/04/08 01:51:02;;;;;;;19.92;9.23;;;;;;;;;;4977124;28;20027;-67
2023/04/08 01:53:27;;;;;;;21.63;9.07;;;;;;;;;;4971978;28;20023;-68
2023/04/08 01:55:56;;;;;;;22.25;8.88;;;;;;;;;;4968357;28;20509;-65
2023/04/08 01:58:21;;;;;;;22.88;9.27;;;;;;;;;;4971326;28;20035;-67
2023/04/08 02:00:47;;;;;;;24.25;9.73;;;;;;;;;;4971371;28;20022;-65
2023/04/08 02:03:15;;;;;;;22.20;8.98;;;;;;;;;;4974993;28;20022;-66
2023/04/08 02:05:40;;;;;;;18.95;8.52;;;;;;;;;;4981473;28;20058;-67
2023/04/08 02:08:06;;;;;;;22.55;8.40;;;;;;;;;;4982422;28;20023;-66
2023/04/08 02:10:31;;;;;;;19.03;8.20;;;;;;;;;;4972702;28;20035;-66
2023/04/08 02:12:56;;;;;;;20.77;8.35;;;;;;;;;;4978457;28;20054;-67
2023/04/08 02:15:22;;;;;;;19.65;8.02;;;;;;;;;;4983947;28;20027;-68
2023/04/08 02:17:53;;;;;;;19.50;8.00;;;;;;;;;;4977609;28;20073;-67
2023/04/08 02:20:24;;;;;;;19.10;7.97;;;;;;;;;;4980941;28;20030;-66
2023/04/08 02:22:55;;;;;;;17.70;7.70;;;;;;;;;;4978843;28;20053;-66
2023/04/08 02:25:21;;;;;;;20.15;7.53;;;;;;;;;;4976358;28;20031;-66
2023/04/08 02:27:49;;;;;;;21.13;7.57;;;;;;;;;;4977198;28;20046;-65
2023/04/08 02:30:15;;;;;;;17.92;7.03;;;;;;;;;;4969523;28;20037;-66
2023/04/08 02:32:41;;;;;;;18.52;7.18;;;;;;;;;;4974826;28;20030;-67
2023/04/08 02:35:07;;;;;;;19.65;7.00;;;;;;;;;;4972475;28;20033;-65
2023/04/08 02:37:32;;;;;;;12.77;5.35;;;;;;;;;;4972084;28;20070;-65
2023/04/08 02:39:57;;;;;;;15.23;6.35;;;;;;;;;;4967760;28;20029;-65
2023/04/08 02:42:22;;;;;;;16.67;6.27;;;;;;;;;;4981238;28;20018;-65
2023/04/08 02:44:48;;;;;;;16.00;6.10;;;;;;;;;;4965172;28;20101;-66
2023/04/08 02:47:13;;;;;;;13.90;5.53;;;;;;;;;;4985166;28;20512;-66
2023/04/08 02:49:38;;;;;;;15.82;6.05;;;;;;;;;;4971411;28;20489;-65
2023/04/08 02:52:04;;;;;;;13.87;6.47;;;;;;;;;;4971071;28;20027;-66
2023/04/08 02:54:29;;;;;;;14.10;5.47;;;;;;;;;;4974887;28;20465;-66
2023/04/08 02:56:54;;;;;;;13.93;5.83;;;;;;;;;;4971764;28;20113;-67
2023/04/08 02:59:19;;;;;;;15.10;5.95;;;;;;;;;;4971887;28;20037;-65
2023/04/08 03:01:45;;;;;;;14.02;5.22;;;;;;;;;;4976926;28;20029;-66
2023/04/08 03:04:10;;;;;;;12.50;5.28;;;;;;;;;;4978277;28;20443;-66
2023/04/08 03:06:35;;;;;;;14.70;5.75;;;;;;;;;;4973286;28;20026;-65
2023/04/08 03:09:00;;;;;;;14.70;5.28;;;;;;;;;;4982140;28;20058;-68
2023/04/08 03:11:25;;;;;;;11.43;5.20;;;;;;;;;;4970259;28;20572;-66
2023/04/08 03:13:50;;;;;;;11.73;5.07;;;;;;;;;;4971789;28;20033;-66
2023/04/08 03:16:15;;;;;;;13.00;5.55;;;;;;;;;;4970160;28;20033;-66
2023/04/08 03:18:41;;;;;;;16.47;5.90;;;;;;;;;;4971109;28;20050;-66
2023/04/08 03:21:06;;;;;;;13.50;5.47;;;;;;;;;;4968526;28;20070;-67
2023/04/08 03:23:31;;;;;;;13.07;5.00;;;;;;;;;;4970442;28;20024;-67
2023/04/08 03:25:56;;;;;;;12.40;5.15;;;;;;;;;;4964281;28;20035;-66
2023/04/08 03:28:21;;;;;;;10.90;4.50;;;;;;;;;;4981261;28;20059;-67
2023/04/08 03:30:47;;;;;;;10.32;4.82;;;;;;;;;;4978799;28;21190;-66
2023/04/08 03:33:12;;;;;;;15.63;5.53;;;;;;;;;;4977405;28;20053;-66
2023/04/08 03:35:37;;;;;;;12.87;4.87;;;;;;;;;;4983287;28;20023;-67
2023/04/08 03:38:02;;;;;;;12.15;5.28;;;;;;;;;;4974088;28;20469;-66
2023/04/08 03:40:28;;;;;;;13.67;5.10;;;;;;;;;;4980317;28;20514;-66
2023/04/08 03:42:53;;;;;;;11.32;4.70;;;;;;;;;;4980459;28;20026;-66
2023/04/08 03:45:18;;;;;;;11.10;4.67;;;;;;;;;;4972320;28;20038;-67
2023/04/08 03:47:43;;;;;;;11.33;4.90;;;;;;;;;;4976951;28;20026;-67
2023/04/08 03:50:08;;;;;;;12.02;4.57;;;;;;;;;;4972208;28;20035;-67
2023/04/08 03:52:33;;;;;;;11.57;4.80;;;;;;;;;;4963819;28;20516;-68
2023/04/08 03:54:59;;;;;;;15.02;5.68;;;;;;;;;;4970368;28;20015;-69
2023/04/08 03:57:24;;;;;;;13.75;5.70;;;;;;;;;;4969299;28;20085;-67
2023/04/08 03:59:49;;;;;;;12.05;4.65;;;;;;;;;;4973315;28;20022;-68
2023/04/08 04:02:14;;;;;;;12.95;5.38;;;;;;;;;;4978326;28;20042;-67
2023/04/08 04:04:39;;;;;;;11.10;4.78;;;;;;;;;;4976947;28;20478;-67
2023/04/08 04:07:04;;;;;;;13.13;5.50;;;;;;;;;;4982013;28;20029;-67
2023/04/08 04:09:30;;;;;;;11.10;4.95;;;;;;;;;;4968601;28;20034;-67
2023/04/08 04:11:55;;;;;;;14.65;5.05;;;;;;;;;;4974236;28;20125;-67
2023/04/08 04:14:20;;;;;;;12.87;4.90;;;;;;;;;;4969118;28;20051;-66
2023/04/08 04:16:45;;;;;;;11.77;4.15;;;;;;;;;;4961502;28;20071;-67
2023/04/08 04:19:10;;;;;;;10.07;4.30;;;;;;;;;;4969924;28;20023;-66
2023/04/08 04:21:36;;;;;;;11.13;4.93;;;;;;;;;;4979140;28;20022;-67
2023/04/08 04:24:01;;;;;;;11.90;4.50;;;;;;;;;;4971443;28;20551;-66
2023/04/08 04:26:26;;;;;;;13.68;4.82;;;;;;;;;;4964331;28;20026;-67
2023/04/08 04:28:51;;;;;;;12.88;4.85;;;;;;;;;;4970830;28;20034;-66
2023/04/08 04:31:17;;;;;;;12.97;4.80;;;;;;;;;;4974397;28;20061;-66
2023/04/08 04:33:42;;;;;;;11.75;4.20;;;;;;;;;;4980187;28;20026;-67
2023/04/08 04:36:07;;;;;;;11.68;4.82;;;;;;;;;;4977918;28;20019;-67
2023/04/08 04:38:32;;;;;;;13.43;5.23;;;;;;;;;;4975048;28;20029;-66
2023/04/08 04:40:57;;;;;;;15.73;5.65;;;;;;;;;;4969955;28;20046;-68
2023/04/08 04:43:23;;;;;;;16.97;5.40;;;;;;;;;;4972338;28;20015;-67
2023/04/08 04:45:49;;;;;;;11.95;4.72;;;;;;;;;;4966130;28;20478;-67
2023/04/08 04:48:14;;;;;;;13.75;4.88;;;;;;;;;;4965717;28;20056;-67
2023/04/08 04:50:39;;;;;;;15.63;5.90;;;;;;;;;;4986775;28;20022;-66
2023/04/08 04:53:04;;;;;;;13.13;4.78;;;;;;;;;;4977415;28;20042;-67
2023/04/08 04:55:30;;;;;;;11.87;4.57;;;;;;;;;;4974536;28;20068;-67
2023/04/08 04:57:55;;;;;;;14.55;5.32;;;;;;;;;;4982099;28;20026;-69
2023/04/08 05:00:20;;;;;;;14.50;4.78;;;;;;;;;;4979323;28;20030;-67
2023/04/08 05:02:45;;;;;;;15.57;5.20;;;;;;;;;;4971325;28;20027;-66
2023/04/08 05:05:10;;;;;;;16.10;5.60;;;;;;;;;;4971401;28;20386;-66
2023/04/08 05:07:36;;;;;;;16.17;5.43;;;;;;;;;;4974819;28;20074;-68
2023/04/08 05:10:02;;;;;;;10.95;4.40;;;;;;;;;;4974176;28;20040;-65
2023/04/08 05:12:27;;;;;;;11.40;4.60;;;;;;;;;;4962635;28;20026;-66
2023/04/08 05:14:52;;;;;;;12.00;4.73;;;;;;;;;;4966512;28;20023;-67
2023/04/08 05:17:17;;;;;;;12.90;5.30;;;;;;;;;;4958551;28;20096;-65
2023/04/08 05:19:43;;;;;;;11.37;4.27;;;;;;;;;;4966868;28;20510;-69
2023/04/08 05:22:08;;;;;;;12.50;4.55;;;;;;;;;;4954833;28;20022;-67
2023/04/08 05:24:33;;;;;;;12.25;4.80;;;;;;;;;;4959307;28;20392;-69
2023/04/08 05:26:58;;;;;;;13.85;5.10;;;;;;;;;;4954446;28;20038;-67
2023/04/08 05:29:23;;;;;;;11.93;4.93;;;;;;;;;;4952895;28;20038;-68
2023/04/08 05:31:48;;;;;;;10.73;4.30;;;;;;;;;;4969158;28;20033;-66
2023/04/08 05:34:18;;;;;;;12.75;5.28;;;;;;;;;;4962200;28;20030;-66
2023/04/08 05:36:43;;;;;;;11.38;4.85;;;;;;;;;;4957593;28;20030;-66
2023/04/08 05:39:08;;;;;;;13.40;5.32;;;;;;;;;;4953292;28;20019;-66
2023/04/08 05:41:34;;;;;;;10.80;4.53;;;;;;;;;;4951154;28;20027;-68
2023/04/08 05:44:00;;;;;;;10.80;4.55;;;;;;;;;;4954851;28;20022;-67
2023/04/08 05:46:25;;;;;;;14.13;5.33;;;;;;;;;;4951638;28;20015;-65
2023/04/08 05:48:50;;;;;;;13.65;5.05;;;;;;;;;;4965178;28;20113;-66
2023/04/08 05:51:16;;;;;;;13.05;5.07;;;;;;;;;;4952583;28;20035;-66
2023/04/08 05:53:43;;;;;;;15.45;4.65;;;;;;;;;;4950264;28;20094;-64
2023/04/08 05:56:08;;;;;;;11.75;4.65;;;;;;;;;;4952918;28;20022;-64
2023/04/08 05:58:33;;;;;;;14.20;5.53;;;;;;;;;;4954997;28;20026;-64
2023/04/08 06:00:58;;;;;;;14.77;5.50;;;;;;;;;;4951697;28;20101;-64
2023/04/08 06:03:23;;;;;;;11.37;5.00;;;;;;;;;;4950699;28;20023;-65
2023/04/08 06:05:49;;;;;;;11.40;4.63;;;;;;;;;;4960438;28;20034;-66
2023/04/08 06:08:14;;;;;;;14.40;5.53;;;;;;;;;;4957282;28;20030;-64
2023/04/08 06:10:39;;;;;;;13.68;5.25;;;;;;;;;;4952977;28;20101;-64
2023/04/08 06:13:05;;;;;;;15.18;5.22;;;;;;;;;;4955957;28;20026;-64
2023/04/08 06:15:33;;;;;;;11.15;5.05;;;;;;;;;;4955096;28;20062;-65
2023/04/08 06:17:59;;;;;;;12.60;5.47;;;;;;;;;;4958014;28;20465;-66
2023/04/08 06:20:24;;;;;;;14.48;5.60;;;;;;;;;;4955808;28;20030;-65
2023/04/08 06:22:49;;;;;;;13.37;5.40;;;;;;;;;;4957000;28;20030;-64
2023/04/08 06:25:15;;;;;;;17.95;5.85;;;;;;;;;;4959524;28;20023;-63
2023/04/08 06:27:40;;;;;;;10.23;4.68;;;;;;;;;;4956793;28;20075;-66
2023/04/08 06:30:06;;;;;;;10.25;4.53;;;;;;;;;;4961194;28;20130;-64
2023/04/08 06:32:32;;;;;;;12.60;4.90;;;;;;;;;;4955582;28;20030;-65
2023/04/08 06:34:57;;;;;;;11.17;5.20;;;;;;;;;;4959500;28;20033;-65
2023/04/08 06:37:23;;;;;;;12.17;5.20;;;;;;;;;;4968531;28;20046;-65
2023/04/08 06:39:48;;;;;;;13.35;5.47;;;;;;;;;;4963686;28;20030;-65
2023/04/08 06:42:13;;;;;;;12.67;5.13;;;;;;;;;;4969822;28;20111;-67
2023/04/08 06:44:38;;;;;;;11.85;5.30;;;;;;;;;;4968547;28;20035;-65
2023/04/08 06:47:03;;;;;;;12.30;5.43;;;;;;;;;;4959462;28;20149;-65
2023/04/08 06:49:29;;;;;;;11.17;4.90;;;;;;;;;;4970900;28;20074;-65
2023/04/08 06:51:54;;;;;;;11.90;5.20;;;;;;;;;;4962003;28;20019;-65
2023/04/08 06:54:19;;;;;;;11.80;4.87;;;;;;;;;;4963936;28;20027;-65
2023/04/08 06:56:44;;;;;;;12.30;5.60;;;;;;;;;;4979959;28;20050;-65
2023/04/08 06:59:09;;;;;;;12.95;5.70;;;;;;;;;;4971724;28;20026;-65
2023/04/08 07:01:35;;;;;;;11.93;5.27;;;;;;;;;;4974516;28;20510;-66
2023/04/08 07:04:01;;;;;;;11.40;5.30;;;;;;;;;;4974327;28;20042;-65
2023/04/08 07:06:26;;;;;;;12.48;6.00;;;;;;;;;;4969463;28;20070;-66
2023/04/08 07:08:51;;;;;;;15.80;6.20;;;;;;;;;;4969836;28;20434;-66
2023/04/08 07:11:18;;;;;;;11.60;5.95;;;;;;;;;;4971630;28;20031;-65
2023/04/08 07:13:43;;;;;;;12.98;6.00;;;;;;;;;;4974010;28;20030;-64
2023/04/08 07:16:08;;;;;;;13.27;6.23;;;;;;;;;;4977890;28;20030;-64
2023/04/08 07:18:33;;;;;;;15.80;7.13;;;;;;;;;;4972497;28;20041;-65
2023/04/08 07:20:59;;;;;;;14.70;6.60;;;;;;;;;;4965836;28;20443;-65
2023/04/08 07:23:25;;;;;;;15.95;7.45;;;;;;;;;;4958074;28;20027;-64
2023/04/08 07:25:50;;;;;;;17.17;7.33;;;;;;;;;;4962506;28;20026;-65
2023/04/08 07:28:15;;;;;;;16.97;7.77;;;;;;;;;;4976779;28;20410;-66
2023/04/08 07:30:40;;;;;;;18.55;8.07;;;;;;;;;;4976140;28;21012;-66
2023/04/08 07:33:05;;;;;;;17.47;7.90;;;;;;;;;;4959635;28;20027;-65
2023/04/08 07:35:30;;;;;;;17.52;7.93;;;;;;;;;;4961490;28;20030;-65
2023/04/08 07:37:56;;;;;;;17.90;7.70;;;;;;;;;;4958399;28;20035;-66
2023/04/08 07:40:21;;;;;;;15.70;7.68;;;;;;;;;;4954222;28;20038;-65
2023/04/08 07:42:47;;;;;;;16.90;8.63;;;;;;;;;;4954130;28;20023;-65
2023/04/08 07:45:12;;;;;;;17.30;7.87;;;;;;;;;;4956473;28;20015;-65
2023/04/08 07:47:37;;;;;;;15.60;7.43;;;;;;;;;;4966699;28;20591;-65
2023/04/08 07:50:02;;;;;;;17.13;7.53;;;;;;;;;;4988716;28;20038;-65
2023/04/08 07:52:31;;;;;;;16.95;8.20;;;;;;;;;;4986612;28;20040;-64
2023/04/08 07:54:56;;;;;;;16.58;7.30;;;;;;;;;;4983134;28;20143;-67
2023/04/08 07:57:22;;;;;;;14.35;7.13;;;;;;;;;;4989740;28;20039;-67
2023/04/08 07:59:48;;;;;;;16.70;8.00;;;;;;;;;;4990980;28;20054;-65
2023/04/08 08:02:13;;;;;;;15.10;7.10;;;;;;;;;;4982423;28;20515;-64
2023/04/08 08:04:38;;;;;;;14.57;7.00;;;;;;;;;;4958803;28;20034;-66
2023/04/08 08:07:03;;;;;;;15.43;7.77;;;;;;;;;;4964670;28;20027;-65
2023/04/08 08:09:28;;;;;;;15.83;7.40;;;;;;;;;;4962902;28;20023;-65
2023/04/08 08:11:53;;;;;;;13.88;7.10;;;;;;;;;;4969000;28;20033;-65
2023/04/08 08:14:19;;;;;;;12.50;6.07;;;;;;;;;;4969006;28;20031;-65
2023/04/08 08:16:44;;;;;;;15.23;7.07;;;;;;;;;;4963025;28;20031;-66
2023/04/08 08:19:11;;;;;;;14.43;6.90;;;;;;;;;;4973743;28;20042;-66
2023/04/08 08:21:36;;;;;;;11.27;6.00;;;;;;;;;;4973599;28;20015;-65
2023/04/08 08:24:01;;;;;;;12.35;6.13;;;;;;;;;;4971989;28;20081;-66
2023/04/08 08:26:27;;;;;;;11.00;5.90;;;;;;;;;;4973571;28;20370;-65
2023/04/08 08:28:54;;;;;;;11.50;5.68;;;;;;;;;;4973609;28;20030;-65
2023/04/08 08:31:19;;;;;;;12.05;5.47;;;;;;;;;;4973321;28;20438;-66
2023/04/08 08:33:44;;;;;;;11.98;6.00;;;;;;;;;;4972046;28;20018;-64
2023/04/08 08:36:10;;;;;;;12.82;6.45;;;;;;;;;;4971437;28;20038;-65
2023/04/08 08:38:35;;;;;;;11.40;5.82;;;;;;;;;;4973292;28;20018;-66
2023/04/08 08:41:02;;;;;;;11.45;5.68;;;;;;;;;;4973638;28;20143;-66
2023/04/08 08:43:28;;;;;;;10.07;5.30;;;;;;;;;;4973138;28;20018;-65
2023/04/08 08:45:53;;;;;;;11.77;6.03;;;;;;;;;;4971887;28;20026;-65
2023/04/08 08:48:18;;;;;;;12.43;6.40;;;;;;;;;;4971341;28;20035;-65
2023/04/08 08:50:44;;;;;;;11.60;5.63;;;;;;;;;;4971128;28;20027;-65
2023/04/08 08:53:09;;;;;;;11.20;5.93;;;;;;;;;;4971096;28;20457;-66
2023/04/08 08:55:34;;;;;;;11.90;6.05;;;;;;;;;;4967752;28;20059;-66
2023/04/08 08:58:03;;;;;;;11.50;6.25;;;;;;;;;;4968667;28;20642;-65
2023/04/08 09:00:39;;;;;;;13.95;6.88;;;;;;;;;;4968678;28;20113;-65
2023/04/08 09:03:13;;;;;;;12.48;6.43;;;;;;;;;;4964941;28;20038;-64
2023/04/08 09:05:58;;;;;;;13.40;6.53;;;;;;;;;;4970480;28;20050;-64
2023/04/08 09:08:34;;;;;;;13.35;6.65;;;;;;;;;;4968617;28;20111;-67
2023/04/08 09:11:18;;;;;;;11.50;5.65;;;;;;;;;;4972388;28;20088;-65
2023/04/08 09:13:45;;;;;;;12.95;6.55;;;;;;;;;;4970761;28;20216;-67
2023/04/08 09:16:11;;;;;;;12.88;6.97;;;;;;;;;;4969627;28;20030;-65
2023/04/08 09:18:37;;;;;;;13.40;7.20;;;;;;;;;;4967446;28;20075;-65
2023/04/08 09:21:04;;;;;;;12.07;6.43;;;;;;;;;;4972047;28;20438;-65
2023/04/08 09:23:43;;;;;;;14.13;7.07;;;;;;;;;;4969130;28;20019;-67
2023/04/08 09:26:09;;;;;;;12.88;6.70;;;;;;;;;;4971022;28;20023;-64
2023/04/08 09:28:35;;;;;;;11.15;5.85;;;;;;;;;;4969178;28;20046;-65
2023/04/08 09:31:00;;;;;;;12.25;6.47;;;;;;;;;;4963535;28;20027;-66
2023/04/08 09:33:31;;;;;;;12.20;6.43;;;;;;;;;;4967081;28;20018;-66
2023/04/08 09:35:57;;;;;;;11.57;6.18;;;;;;;;;;4957189;28;20038;-65
2023/04/08 09:38:22;;;;;;;14.63;7.57;;;;;;;;;;4956399;28;20043;-66
2023/04/08 09:40:48;;;;;;;12.93;7.00;;;;;;;;;;4970817;28;20073;-66
2023/04/08 09:43:14;;;;;;;12.90;6.70;;;;;;;;;;4967500;28;20022;-65
2023/04/08 09:45:41;;;;;;;14.65;7.35;;;;;;;;;;4968682;28;20037;-66
2023/04/08 09:48:11;;;;;;;13.68;7.15;;;;;;;;;;4960247;28;20031;-66
2023/04/08 09:50:41;;;;;;;13.02;6.97;;;;;;;;;;4970528;28;20026;-65
2023/04/08 09:53:14;;;;;;;12.98;6.78;;;;;;;;;;4959967;28;20023;-67
2023/04/08 09:55:42;;;;;;;14.77;7.30;;;;;;;;;;4970738;28;20379;-65
2023/04/08 09:58:10;;;;;;;15.70;7.55;;;;;;;;;;4962988;28;20028;-65
2023/04/08 10:00:42;;;;;;;13.30;6.90;;;;;;;;;;4968464;28;20023;-65
2023/04/08 10:03:19;;;;;;;14.82;7.55;;;;;;;;;;4962336;28;20038;-66
2023/04/08 10:05:45;;;;;;;13.48;6.82;;;;;;;;;;4961597;28;20014;-67
2023/04/08 10:08:11;;;;;;;15.57;7.47;;;;;;;;;;4963730;28;20050;-65
2023/04/08 10:10:38;;;;;;;15.35;6.68;;;;;;;;;;4970262;28;20049;-65
2023/04/08 10:13:03;;;;;;;14.07;7.45;;;;;;;;;;4971368;28;20070;-66
2023/04/08 10:15:32;;;;;;;15.20;7.50;;;;;;;;;;4963772;28;20030;-66
2023/04/08 10:18:04;;;;;;;15.88;7.50;;;;;;;;;;4969243;28;20035;-65
2023/04/08 10:20:39;;;;;;;13.43;7.07;;;;;;;;;;4962882;28;20054;-66
2023/04/08 10:23:08;;;;;;;12.73;6.60;;;;;;;;;;4967215;28;20081;-65
2023/04/08 10:25:34;;;;;;;14.32;6.97;;;;;;;;;;4958636;28;20055;-65
2023/04/08 10:28:00;;;;;;;14.13;6.63;;;;;;;;;;4952198;28;20020;-66
2023/04/08 10:30:30;;;;;;;14.77;6.97;;;;;;;;;;4964043;28;20025;-65
2023/04/08 10:32:56;;;;;;;13.88;6.85;;;;;;;;;;4965897;28;20439;-66
2023/04/08 10:35:51;;;;;;;12.57;6.43;;;;;;;;;;4964582;28;20036;-66
2023/04/08 10:38:16;;;;;;;13.27;6.85;;;;;;;;;;4957894;28;20051;-64
2023/04/08 10:40:42;;;;;;;13.40;6.13;;;;;;;;;;4967858;28;20031;-66
2023/04/08 10:43:11;;;;;;;13.05;6.10;;;;;;;;;;4966162;28;20027;-66
2023/04/08 10:45:37;;;;;;;10.95;5.05;;;;;;;;;;4964137;28;20525;-66
2023/04/08 10:48:16;;;;;;;12.18;5.32;;;;;;;;;;4969577;28;20105;-66
2023/04/08 10:50:41;;;;;;;11.75;5.50;;;;;;;;;;4970396;28;20246;-65
2023/04/08 10:53:07;;;;;;;10.90;5.35;;;;;;;;;;4973878;28;20034;-65
2023/04/08 10:55:33;;;;;;;11.18;6.35;;;;;;;;;;4977488;28;20027;-66
2023/04/08 10:58:05;;;;;;;12.23;6.07;;;;;;;;;;4970854;28;20038;-64
2023/04/08 11:00:34;;;;;;;11.32;5.65;;;;;;;;;;4964660;28;20094;-65
2023/04/08 11:03:00;;;;;;;13.07;5.82;;;;;;;;;;4966749;28;20062;-65
2023/04/08 11:05:26;;;;;;;12.30;6.07;;;;;;;;;;4966322;28;20055;-66
2023/04/08 11:07:51;;;;;;;15.00;6.75;;;;;;;;;;4968091;28;20027;-67
2023/04/08 11:10:16;;;;;;;12.97;6.60;;;;;;;;;;4963276;28;20030;-65
2023/04/08 11:12:42;;;;;;;14.33;6.83;;;;;;;;;;4971357;28;20390;-65
2023/04/08 11:15:07;;;;;;;12.43;7.05;;;;;;;;;;4970923;28;20040;-65
2023/04/08 11:17:33;;;;;;;14.07;6.78;;;;;;;;;;4970837;28;20026;-64
2023/04/08 11:20:01;;;;;;;15.23;7.78;;;;;;;;;;4952504;28;20038;-66
2023/04/08 11:22:27;;;;;;;14.90;7.60;;;;;;;;;;4952875;28;20020;-65
2023/04/08 11:24:52;;;;;;;14.27;7.22;;;;;;;;;;4973956;28;20109;-65
2023/04/08 11:27:17;;;;;;;15.47;7.53;;;;;;;;;;4956964;28;20143;-65
2023/04/08 11:29:43;;;;;;;14.70;7.40;;;;;;;;;;4956162;28;20468;-65
2023/04/08 11:32:08;;;;;;;16.60;7.82;;;;;;;;;;4956707;28;20030;-64
2023/04/08 11:34:38;;;;;;;15.98;7.90;;;;;;;;;;4957454;28;20029;-66
2023/04/08 11:37:03;;;;;;;16.88;8.32;;;;;;;;;;4961703;28;20035;-65
2023/04/08 11:39:28;;;;;;;15.98;8.65;;;;;;;;;;4972690;28;20026;-65
2023/04/08 11:41:54;;;;;;;15.68;7.75;;;;;;;;;;4956679;29;20023;-66
2023/04/08 11:44:19;;;;;;;17.80;8.40;;;;;;;;;;4956942;29;20399;-64
2023/04/08 11:46:54;;;;;;;17.40;8.30;;;;;;;;;;4969132;28;20050;-65
2023/04/08 11:49:19;;;;;;;16.73;8.32;;;;;;;;;;4956631;28;20599;-64
2023/04/08 11:51:54;;;;;;;16.27;7.97;;;;;;;;;;4962609;28;20101;-66
2023/04/08 11:54:29;;;;;;;17.23;8.48;;;;;;;;;;4964005;28;20026;-65
2023/04/08 11:56:55;;;;;;;16.13;8.45;;;;;;;;;;4954759;29;20027;-66
2023/04/08 11:59:20;;;;;;;19.15;8.73;;;;;;;;;;4955691;28;20027;-65
2023/04/08 12:01:45;;;;;;;20.25;9.68;;;;;;;;;;4955904;29;20479;-65
2023/04/08 12:04:10;;;;;;;17.43;8.53;;;;;;;;;;4956021;29;20026;-65
2023/04/08 12:06:35;;;;;;;19.37;9.47;;;;;;;;;;4966728;28;20106;-65
2023/04/08 12:09:01;;;;;;;20.40;10.33;;;;;;;;;;4958123;28;20062;-65
2023/04/08 12:11:26;;;;;;;21.73;10.45;;;;;;;;;;4954837;28;20023;-66
2023/04/08 12:13:51;;;;;;;22.95;11.00;;;;;;;;;;4954767;28;20020;-65
2023/04/08 12:16:16;;;;;;;20.83;10.77;;;;;;;;;;4954337;28;20035;-65
2023/04/08 12:18:41;;;;;;;23.58;11.18;;;;;;;;;;4954175;28;20462;-65
2023/04/08 12:21:07;;;;;;;22.38;10.73;;;;;;;;;;4969453;28;20022;-66
2023/04/08 12:23:32;;;;;;;22.55;11.85;;;;;;;;;;4961758;28;20449;-65
2023/04/08 12:25:57;;;;;;;24.05;12.15;;;;;;;;;;4954011;28;20082;-64
2023/04/08 12:28:22;;;;;;;21.77;11.33;;;;;;;;;;4954603;28;20042;-65
2023/04/08 12:30:47;;;;;;;23.30;11.73;;;;;;;;;;4955286;28;20023;-65
2023/04/08 12:33:12;;;;;;;22.63;10.88;;;;;;;;;;4953840;28;20082;-67
2023/04/08 12:35:37;;;;;;;22.10;11.77;;;;;;;;;;4973199;28;20043;-64
2023/04/08 12:38:03;;;;;;;24.17;11.93;;;;;;;;;;4956822;28;20035;-65
2023/04/08 12:40:28;;;;;;;21.77;11.02;;;;;;;;;;4954884;28;20023;-65
2023/04/08 12:42:53;;;;;;;22.00;10.30;;;;;;;;;;4954409;28;20479;-66
2023/04/08 12:45:18;;;;;;;20.40;9.38;;;;;;;;;;4954377;28;20078;-65
2023/04/08 12:47:43;;;;;;;21.73;10.67;;;;;;;;;;4956695;28;20061;-67
2023/04/08 12:50:09;;;;;;;19.30;9.25;;;;;;;;;;4967892;28;20531;-66
2023/04/08 12:52:34;;;;;;;22.30;9.75;;;;;;;;;;4973644;28;20055;-66
2023/04/08 12:54:59;;;;;;;19.33;9.40;;;;;;;;;;4973377;28;20026;-65
2023/04/08 12:57:26;;;;;;;20.73;9.93;;;;;;;;;;4972630;28;20037;-66
2023/04/08 12:59:51;;;;;;;20.10;9.32;;;;;;;;;;4973774;28;20170;-66
2023/04/08 13:02:16;;;;;;;20.52;9.02;;;;;;;;;;4971372;28;20515;-66
2023/04/08 13:04:41;;;;;;;16.95;8.98;;;;;;;;;;4973447;28;20023;-65
2023/04/08 13:07:06;;;;;;;19.55;8.80;;;;;;;;;;4956529;28;20110;-65
2023/04/08 13:09:31;;;;;;;18.23;9.45;;;;;;;;;;4954031;29;20077;-65
2023/04/08 13:11:57;;;;;;;17.50;8.93;;;;;;;;;;4954082;29;20016;-66
2023/04/08 13:14:22;;;;;;;18.63;9.97;;;;;;;;;;4953939;28;20483;-65
2023/04/08 13:16:48;;;;;;;18.63;10.05;;;;;;;;;;4971755;28;20035;-65
2023/04/08 13:19:15;;;;;;;17.63;9.85;;;;;;;;;;4968597;28;20034;-66
2023/04/08 13:21:40;;;;;;;19.05;9.95;;;;;;;;;;4960487;28;20035;-65
2023/04/08 13:24:05;;;;;;;17.93;9.40;;;;;;;;;;4954054;29;20302;-65
2023/04/08 13:26:30;;;;;;;17.47;9.07;;;;;;;;;;4956171;29;20031;-65
2023/04/08 13:28:56;;;;;;;18.53;9.70;;;;;;;;;;4964801;28;20038;-65
2023/04/08 13:31:21;;;;;;;18.13;9.05;;;;;;;;;;4985664;28;20441;-66
2023/04/08 13:33:46;;;;;;;17.35;7.93;;;;;;;;;;4973506;28;20022;-66
2023/04/08 13:36:11;;;;;;;16.52;8.32;;;;;;;;;;4978486;28;20030;-65
2023/04/08 13:38:37;;;;;;;16.38;8.95;;;;;;;;;;4967591;29;20058;-65
2023/04/08 13:41:02;;;;;;;17.33;8.48;;;;;;;;;;4965599;28;20019;-68
2023/04/08 13:43:27;;;;;;;17.95;8.27;;;;;;;;;;4963995;28;20035;-66
2023/04/08 13:45:52;;;;;;;16.47;8.20;;;;;;;;;;4972738;28;20089;-64
2023/04/08 13:48:18;;;;;;;14.77;7.77;;;;;;;;;;4970830;28;20050;-65
2023/04/08 13:50:44;;;;;;;16.00;8.68;;;;;;;;;;4972737;28;20025;-65
2023/04/08 13:53:09;;;;;;;16.70;8.25;;;;;;;;;;4955971;28;20391;-66
2023/04/08 13:55:34;;;;;;;18.83;9.13;;;;;;;;;;4953310;29;20078;-65
2023/04/08 13:57:59;;;;;;;15.63;8.40;;;;;;;;;;4962996;28;20026;-64
2023/04/08 14:00:25;;;;;;;15.37;8.50;;;;;;;;;;4970077;28;20027;-65
2023/04/08 14:02:51;;;;;;;15.38;8.48;;;;;;;;;;4972251;28;21001;-64
2023/04/08 14:05:17;;;;;;;;;;;;;;;;;;4968984;28;20027;-65
2023/04/08 14:07:42;;;;;;;15.02;7.72;;;;;;;;;;4958193;28;19914;-66
2023/04/08 14:10:10;;;;;;;16.52;7.53;;;;;;;;;;4952987;29;20066;-64
2023/04/08 14:12:35;;;;;;;15.82;7.50;;;;;;;;;;4953127;28;20030;-67
2023/04/08 14:15:01;;;;;;;15.13;7.47;;;;;;;;;;4962133;28;20020;-65
2023/04/08 14:17:26;;;;;;;15.80;7.80;;;;;;;;;;4952246;28;20031;-65
2023/04/08 14:19:52;;;;;;;15.37;7.97;;;;;;;;;;4964452;28;20019;-65
2023/04/08 14:22:17;;;;;;;15.97;7.97;;;;;;;;;;4969273;28;20077;-64